D/T METAR WX W/DIR W/SPE G/SPE TEMP DEWP
12/07/20 15:20 EGNR 121420Z 17004KT 110V230 9999 SCT032 21/10 Q1027 S (170°) 4.6mph 21°C 10°C
12/07/20 14:50 EGNR 121350Z 14006KT 100V190 9999 FEW032 21/09 Q1027 SE (140°) 6.9mph 21°C 9°C
12/07/20 14:20 EGNR 121320Z 14008KT 090V180 9999 FEW032 20/10 Q1028 SE (140°) 9.2mph 20°C 10°C
12/07/20 13:50 EGNR 121250Z 17006KT 140V220 9999 FEW033 20/09 Q1028 S (170°) 6.9mph 20°C 9°C
12/07/20 13:20 EGNR 121220Z VRB06KT 9999 FEW035 20/09 Q1028 N (0°) 6.9mph 20°C 9°C
12/07/20 12:50 EGNR 121150Z 21010KT 9999 FEW035 19/08 Q1028 SSW (210°) 11.5mph 19°C 8°C
12/07/20 12:20 EGNR 121120Z 16007KT 120V200 9999 FEW034 19/08 Q1028 SSE (160°) 8.1mph 19°C 8°C
12/07/20 11:50 EGNR 121050Z 15007KT 080V200 9999 FEW036 18/07 Q1028 SSE (150°) 8.1mph 18°C 7°C
12/07/20 11:20 EGNR 121020Z 18006KT 140V230 9999 FEW038 18/08 Q1029 S (180°) 6.9mph 18°C 8°C
12/07/20 10:50 EGNR 120950Z 16008KT 130V200 9999 FEW038 17/08 Q1029 SSE (160°) 9.2mph 17°C 8°C
12/07/20 10:20 EGNR 120920Z 17008KT 130V200 9999 FEW036 17/08 Q1029 S (170°) 9.2mph 17°C 8°C
12/07/20 09:50 EGNR 120850Z 16009KT 9999 FEW035 16/08 Q1029 SSE (160°) 10.4mph 16°C 8°C
12/07/20 09:20 EGNR 120820Z 15008KT CAVOK 15/09 Q1029 SSE (150°) 9.2mph 15°C 9°C
12/07/20 08:50 EGNR 120750Z 15008KT CAVOK 14/08 Q1029 SSE (150°) 9.2mph 14°C 8°C
12/07/20 08:20 EGNR 120720Z 15006KT CAVOK 12/09 Q1029 SSE (150°) 6.9mph 12°C 9°C
11/07/20 17:20 EGNR 111620Z 31011KT 260V350 9999 FEW038 16/06 Q1029 NW (310°) 12.7mph 16°C 6°C
11/07/20 16:50 EGNR 111550Z 32013KT 280V350 9999 FEW038 17/07 Q1029 NW (320°) 15.0mph 17°C 7°C
11/07/20 16:20 EGNR 111520Z 32012KT 300V010 9999 SCT038 16/08 Q1029 NW (320°) 13.8mph 16°C 8°C
11/07/20 15:50 EGNR 111450Z 33013KT 9999 FEW027 SCT038 16/08 Q1029 NNW (330°) 15.0mph 16°C 8°C
11/07/20 15:20 EGNR 111420Z 33014KT 9999 FEW027 SCT036 16/08 Q1028 NNW (330°) 16.1mph 16°C 8°C
11/07/20 14:50 EGNR 111350Z 33012KT 9999 FEW025 SCT038 16/09 Q1028 NNW (330°) 13.8mph 16°C 9°C
11/07/20 13:50 EGNR 111250Z 34009KT 290V020 9999 FEW025 BKN038 16/09 Q1029 NNW (340°) 10.4mph 16°C 9°C
11/07/20 13:20 EGNR 111220Z 36009KT 300V030 9999 FEW020 BKN038 16/07 Q1028 N (360°) 10.4mph 16°C 7°C
11/07/20 12:50 EGNR 111150Z 33009KT 9999 FEW018 BKN037 15/08 Q1028 NNW (330°) 10.4mph 15°C 8°C
11/07/20 11:50 EGNR 111050Z 33008KT 9999 FEW018 BKN028 15/09 Q1028 NNW (330°) 9.2mph 15°C 9°C
11/07/20 11:20 EGNR 111020Z 33010KT 300V010 9999 FEW018 BKN026 15/08 Q1028 NNW (330°) 11.5mph 15°C 8°C
11/07/20 10:50 EGNR 110950Z 33011KT 9999 FEW018 BKN026 15/08 Q1028 NNW (330°) 12.7mph 15°C 8°C
11/07/20 10:20 EGNR 110920Z 32011KT 9999 FEW018 BKN026 16/08 Q1028 NW (320°) 12.7mph 16°C 8°C
11/07/20 09:20 EGNR 110820Z 31008KT 280V340 9999 FEW018 SCT026 14/08 Q1027 NW (310°) 9.2mph 14°C 8°C
11/07/20 08:50 EGNR 110750Z 32010KT 9999 VCSH FEW018 SCT026 14/10 Q1027 VCSH NW (320°) 11.5mph 14°C 10°C
11/07/20 08:20 EGNR 110720Z 31009KT 9999 FEW018 SCT024 14/09 Q1027 NW (310°) 10.4mph 14°C 9°C
11/07/20 07:50 EGNR 110650Z 31008KT 260V340 9999 FEW018 SCT024 14/09 Q1027 NW (310°) 9.2mph 14°C 9°C
10/07/20 19:20 EGNR 101820Z 31009KT 280V340 9999 FEW039 15/08 Q1022 NW (310°) 10.4mph 15°C 8°C
10/07/20 18:50 EGNR 101750Z 32014KT 9999 FEW039 16/07 Q1022 NW (320°) 16.1mph 16°C 7°C
10/07/20 18:20 EGNR 101720Z 32015KT 9999 FEW034 16/08 Q1022 NW (320°) 17.3mph 16°C 8°C
10/07/20 17:50 EGNR 101650Z 32018KT 9999 FEW034 16/08 Q1022 NW (320°) 20.7mph 16°C 8°C
10/07/20 17:20 EGNR 101620Z 32016KT 9999 FEW034 16/07 Q1022 NW (320°) 18.4mph 16°C 7°C
10/07/20 16:50 EGNR 101550Z 32015KT 9999 FEW034 16/08 Q1021 NW (320°) 17.3mph 16°C 8°C
10/07/20 16:20 EGNR 101520Z 32017KT 9999 FEW032 SCT038 16/08 Q1021 NW (320°) 19.6mph 16°C 8°C
10/07/20 15:50 EGNR 101450Z 32015KT 9999 FEW032 SCT038 16/08 Q1021 NW (320°) 17.3mph 16°C 8°C
10/07/20 15:20 EGNR 101420Z 32016KT 9999 FEW030 SCT038 15/08 Q1021 NW (320°) 18.4mph 15°C 8°C
10/07/20 14:50 EGNR 101350Z 31016KT 9999 FEW027 SCT034 16/09 Q1021 NW (310°) 18.4mph 16°C 9°C
10/07/20 14:20 EGNR 101320Z 32014KT 290V360 9999 SCT027 SCT034 16/09 Q1021 NW (320°) 16.1mph 16°C 9°C
10/07/20 13:50 EGNR 101250Z 32017G27KT 280V340 9999 SCT027 SCT034 15/09 Q1021 NW (320°) 19.6mph 31.1mph 15°C 9°C
10/07/20 13:20 EGNR 101220Z 32014KT 9999 SCT026 SCT034 15/08 Q1020 NW (320°) 16.1mph 15°C 8°C
10/07/20 12:50 EGNR 101150Z 32017KT 9999 FEW018 BKN026 14/08 Q1020 NW (320°) 19.6mph 14°C 8°C
10/07/20 12:20 EGNR 101120Z 32017KT 9999 FEW018 BKN026 15/09 Q1020 NW (320°) 19.6mph 15°C 9°C
10/07/20 11:50 EGNR 101050Z 32018KT 9999 FEW018 BKN026 15/09 Q1020 NW (320°) 20.7mph 15°C 9°C
10/07/20 11:20 EGNR 101020Z 32017G28KT 9999 VCSH FEW018 BKN025 14/08 Q1019 VCSH NW (320°) 19.6mph 32.2mph 14°C 8°C
10/07/20 10:50 EGNR 100950Z 32016KT 9999 VCSH FEW018 BKN023 15/09 Q1019 VCSH NW (320°) 18.4mph 15°C 9°C
10/07/20 10:20 EGNR 100920Z 32017KT 9999 VCSH FEW018 BKN023 14/09 Q1019 VCSH NW (320°) 19.6mph 14°C 9°C
10/07/20 09:50 EGNR 100850Z 32019KT 9999 VCSH FEW018 BKN023 13/08 Q1018 VCSH NW (320°) 21.9mph 13°C 8°C
10/07/20 09:20 EGNR 100820Z 32016KT 9999 VCSH FEW018 BKN022 14/09 Q1018 VCSH NW (320°) 18.4mph 14°C 9°C
10/07/20 08:50 EGNR 100750Z 32015KT 9999 VCSH FEW016 BKN022 14/09 Q1018 VCSH NW (320°) 17.3mph 14°C 9°C
10/07/20 08:20 EGNR 100720Z 32016KT 9999 VCSH FEW016 BKN022 13/09 Q1018 VCSH NW (320°) 18.4mph 13°C 9°C
10/07/20 07:50 EGNR 100650Z 31011KT 280V340 9999 VCSH FEW016 BKN022 13/09 Q1017 VCSH NW (310°) 12.7mph 13°C 9°C
9/07/20 19:20 EGNR 091820Z 35005KT 9999 FEW012 BKN020 14/12 Q1014 N (350°) 5.8mph 14°C 12°C
9/07/20 18:50 EGNR 091750Z 34006KT 9999 FEW008 BKN018 14/11 Q1014 NNW (340°) 6.9mph 14°C 11°C
9/07/20 18:20 EGNR 091720Z 02005KT 9999 FEW008 BKN018 14/11 Q1014 NNE (20°) 5.8mph 14°C 11°C
9/07/20 17:50 EGNR 091650Z 02006KT 9999 FEW008 BKN018 14/11 Q1014 NNE (20°) 6.9mph 14°C 11°C
9/07/20 17:20 EGNR 091620Z 02007KT 9999 8000S -SHRA FEW008 BKN014 14/11 Q1014 -SHRA NNE (20°) 8.1mph 14°C 11°C
9/07/20 16:50 EGNR 091550Z 02007KT 9999 8000S FEW006 BKN014 15/11 Q1014 NNE (20°) 8.1mph 15°C 11°C
9/07/20 16:20 EGNR 091520Z 01006KT 9999 8000S VCSH FEW006 BKN012 15/11 Q1014 VCSH N (10°) 6.9mph 15°C 11°C
9/07/20 15:50 EGNR 091450Z 03007KT 9999 FEW006 BKN014 15/11 Q1014 NNE (30°) 8.1mph 15°C 11°C
9/07/20 15:20 EGNR 091420Z 05008KT 9999 FEW006 BKN013 15/11 Q1013 NE (50°) 9.2mph 15°C 11°C
9/07/20 14:50 EGNR 091350Z 03006KT 9999 8000S SCT006 BKN012 15/11 Q1013 NNE (30°) 6.9mph 15°C 11°C
9/07/20 13:50 EGNR 091250Z 04008KT 9999 7000S FEW006 BKN012 15/12 Q1013 NE (40°) 9.2mph 15°C 12°C
9/07/20 13:20 EGNR 091220Z 02006KT 9999 SCT006 BKN015 14/12 Q1013 NNE (20°) 6.9mph 14°C 12°C
9/07/20 12:50 EGNR 091150Z 03005KT 350V060 9999 SCT006 BKN015 15/12 Q1013 NNE (30°) 5.8mph 15°C 12°C
9/07/20 12:20 EGNR 091120Z 04005KT 9999 8000SW VCSH SCT006 BKN010 14/12 Q1012 VCSH NE (40°) 5.8mph 14°C 12°C
9/07/20 11:50 EGNR 091050Z 05005KT 9999 3000SW VCSH BKN006 OVC016 14/12 Q1012 VCSH NE (50°) 5.8mph 14°C 12°C
9/07/20 11:20 EGNR 091020Z 06006KT 9999 3000SW -RADZ BKN006 OVC013 13/12 Q1012 -RA DZ ENE (60°) 6.9mph 13°C 12°C
9/07/20 10:50 EGNR 090950Z 05005KT 9999 7000SW -RADZ BKN006 OVC010 13/12 Q1012 -RA DZ NE (50°) 5.8mph 13°C 12°C
9/07/20 10:20 EGNR 090920Z 06006KT 9999 8000SW VCSH BKN006 OVC010 13/12 Q1012 VCSH ENE (60°) 6.9mph 13°C 12°C
9/07/20 09:20 EGNR 090820Z 06007KT 9999 3000SW -RADZ BKN005 OVC010 13/12 Q1011 -RA DZ ENE (60°) 8.1mph 13°C 12°C
9/07/20 08:50 EGNR 090750Z 05008KT 9000 3000SW VCSH BKN003 OVC010 13/12 Q1011 VCSH NE (50°) 9.2mph 13°C 12°C
9/07/20 08:20 EGNR 090720Z 04009KT 7000 3000SW -RADZ BKN003 OVC010 13/12 Q1010 -RA DZ NE (40°) 10.4mph 13°C 12°C
9/07/20 07:50 EGNR 090650Z 36004KT 330V060 7000 3000SW -RADZ BKN003 OVC010 13/13 Q1010 -RA DZ N (360°) 4.6mph 13°C 13°C
9/07/20 07:20 EGNR 090620Z 02005KT 4000 -RADZ BKN002 OVC010 13/13 Q1010 -RA -DZ NNE (20°) 5.8mph 13°C 13°C
8/07/20 19:20 EGNR 081820Z 13004KT 4000 -RA BKN004 14/13 Q1013 -RA SE (130°) 4.6mph 14°C 13°C
8/07/20 18:50 EGNR 081750Z 13005KT 3500 -RA BKN004 14/13 Q1014 -RA SE (130°) 5.8mph 14°C 13°C
8/07/20 18:20 EGNR 081720Z 13005KT 3500 -RA BKN006 14/13 Q1014 -RA SE (130°) 5.8mph 14°C 13°C
8/07/20 17:20 EGNR 081620Z 13005KT 7000 -RA FEW005 BKN014 15/13 Q1014 -RA SE (130°) 5.8mph 15°C 13°C
8/07/20 16:50 EGNR 081550Z 13008KT 9999 7000S -SHRA FEW005 BKN014 15/14 Q1014 -SHRA SE (130°) 9.2mph 15°C 14°C
8/07/20 15:50 EGNR 081450Z 12006KT 4500 -RA FEW004 BKN006 15/14 Q1015 -RA ESE (120°) 6.9mph 15°C 14°C
8/07/20 15:20 EGNR 081420Z 12006KT 4000 -RA FEW004 BKN007 15/13 Q1015 -RA ESE (120°) 6.9mph 15°C 13°C
8/07/20 14:50 EGNR 081350Z 15004KT 9999 7000S VCSH FEW005 BKN009 15/13 Q1015 VCSH SSE (150°) 4.6mph 15°C 13°C
8/07/20 14:20 EGNR 081320Z 12006KT 9999 7000S VCSH FEW005 BKN008 15/13 Q1015 VCSH ESE (120°) 6.9mph 15°C 13°C
8/07/20 13:50 EGNR 081250Z 11005KT 080V140 9999 8000S VCSH FEW005 BKN010 15/13 Q1015 VCSH ESE (110°) 5.8mph 15°C 13°C
8/07/20 13:20 EGNR 081220Z 08005KT 050V110 9999 FEW005 BKN009 15/13 Q1015 E (80°) 5.8mph 15°C 13°C
8/07/20 12:50 EGNR 081150Z 09005KT 060V120 8000 -DZ SCT005 BKN008 15/13 Q1015 -DZ E (90°) 5.8mph 15°C 13°C
8/07/20 12:20 EGNR 081120Z 09004KT 050V150 9999 SCT005 BKN008 15/13 Q1015 E (90°) 4.6mph 15°C 13°C
8/07/20 11:50 EGNR 081050Z 07005KT 040V110 9999 SCT005 BKN008 15/13 Q1015 ENE (70°) 5.8mph 15°C 13°C
8/07/20 11:20 EGNR 081020Z 05006KT 020V090 9999 BKN009 15/13 Q1015 NE (50°) 6.9mph 15°C 13°C
8/07/20 10:50 EGNR 080950Z 06006KT 9999 BKN008 OVC012 15/13 Q1015 ENE (60°) 6.9mph 15°C 13°C
8/07/20 10:20 EGNR 080920Z 05006KT 9999 BKN008 OVC012 15/13 Q1015 NE (50°) 6.9mph 15°C 13°C